createdAt,value
2019-03-01T00:00:08.669Z,11.70
2019-03-01T00:02:37.328Z,11.70
2019-03-01T00:05:31.648Z,11.80
2019-03-01T00:08:08.454Z,11.90
2019-03-01T00:11:13.299Z,12.40
2019-03-01T00:14:02.696Z,12.80
2019-03-01T00:16:40.234Z,12.80
2019-03-01T00:19:17.651Z,12.50
2019-03-01T00:21:54.758Z,12.30
2019-03-01T00:24:32.051Z,12.20
2019-03-01T00:27:33.839Z,12.10
2019-03-01T00:30:11.266Z,12.10
2019-03-01T00:32:45.717Z,11.90
2019-03-01T00:35:35.654Z,11.70
2019-03-01T00:38:13.112Z,11.50
2019-03-01T00:41:02.878Z,11.30
2019-03-01T00:43:58.421Z,11.00
2019-03-01T00:46:26.879Z,10.90
2019-03-01T00:48:55.329Z,10.70
2019-03-01T00:51:23.782Z,10.60
2019-03-01T00:53:52.246Z,10.60
2019-03-01T00:56:20.779Z,10.60
2019-03-01T00:58:49.236Z,10.80
2019-03-01T01:01:17.679Z,10.80
2019-03-01T01:03:46.214Z,11.00
2019-03-01T01:06:14.735Z,10.90
2019-03-01T01:08:43.267Z,10.80
2019-03-01T01:11:11.787Z,10.60
2019-03-01T01:13:40.242Z,10.60
2019-03-01T01:16:08.701Z,10.50
2019-03-01T01:18:37.218Z,10.40
2019-03-01T01:21:05.747Z,10.20
2019-03-01T01:23:34.187Z,10.30
2019-03-01T01:26:02.720Z,10.30
2019-03-01T01:28:31.184Z,10.20
2019-03-01T01:30:59.659Z,10.10
2019-03-01T01:33:28.110Z,10.00
2019-03-01T01:35:56.630Z,10.00
2019-03-01T01:38:25.097Z,10.00
2019-03-01T01:40:53.611Z,10.00
2019-03-01T01:43:22.440Z,10.00
2019-03-01T01:45:51.767Z,10.10
2019-03-01T01:48:20.388Z,10.00
2019-03-01T01:50:48.838Z,10.00
2019-03-01T01:53:17.291Z,10.20
2019-03-01T01:55:45.750Z,10.30
2019-03-01T01:58:14.196Z,10.20
2019-03-01T02:00:42.710Z,10.20
2019-03-01T02:03:11.178Z,10.20
2019-03-01T02:05:39.791Z,10.20
2019-03-01T02:08:08.318Z,10.20
2019-03-01T02:10:36.903Z,10.20
2019-03-01T02:13:05.502Z,10.10
2019-03-01T02:15:33.945Z,10.00
2019-03-01T02:18:02.410Z,9.90
2019-03-01T02:20:32.399Z,9.90
2019-03-01T02:23:00.903Z,9.90
2019-03-01T02:25:29.358Z,9.80
2019-03-01T02:27:57.794Z,9.90
2019-03-01T02:30:45.873Z,9.90
2019-03-01T02:33:14.383Z,9.90
2019-03-01T02:35:42.923Z,10.00
2019-03-01T02:38:11.399Z,10.00
2019-03-01T02:40:39.838Z,9.90
2019-03-01T02:43:08.300Z,9.90
2019-03-01T02:45:36.850Z,9.80
2019-03-01T02:48:05.363Z,9.80
2019-03-01T02:50:33.803Z,9.70
2019-03-01T02:53:02.256Z,9.70
2019-03-01T02:55:31.145Z,9.60
2019-03-01T02:57:59.660Z,9.60
2019-03-01T03:00:30.319Z,9.50
2019-03-01T03:02:58.905Z,9.50
2019-03-01T03:05:27.435Z,9.50
2019-03-01T03:07:57.725Z,9.70
2019-03-01T03:10:26.318Z,9.70
2019-03-01T03:12:57.589Z,9.90
2019-03-01T03:15:39.467Z,10.30
2019-03-01T03:18:08.000Z,11.00
2019-03-01T03:20:36.529Z,11.10
2019-03-01T03:23:05.119Z,11.50
2019-03-01T03:25:33.569Z,11.40
2019-03-01T03:28:02.103Z,11.40
2019-03-01T03:30:30.820Z,11.40
2019-03-01T03:32:59.295Z,11.50
2019-03-01T03:35:27.745Z,11.40
2019-03-01T03:37:56.207Z,11.50
2019-03-01T03:40:24.722Z,11.50
2019-03-01T03:42:53.189Z,11.30
2019-03-01T03:45:21.777Z,11.30
2019-03-01T03:47:50.252Z,11.50
2019-03-01T03:50:18.842Z,11.90
2019-03-01T03:52:47.292Z,11.90
2019-03-01T03:55:17.299Z,11.90
2019-03-01T03:57:45.834Z,11.80
2019-03-01T04:00:21.854Z,11.70
2019-03-01T04:02:50.367Z,11.60
2019-03-01T04:05:18.819Z,11.50
2019-03-01T04:07:47.415Z,11.70
2019-03-01T04:10:16.005Z,11.70
2019-03-01T04:12:44.545Z,11.70
2019-03-01T04:15:15.263Z,11.70
2019-03-01T04:17:43.727Z,11.60
2019-03-01T04:20:15.076Z,11.60
2019-03-01T04:22:43.680Z,11.40
2019-03-01T04:25:12.262Z,11.30
2019-03-01T04:27:40.707Z,11.40
2019-03-01T04:30:12.481Z,11.40
2019-03-01T04:32:40.923Z,11.50
2019-03-01T04:35:09.899Z,11.50
2019-03-01T04:37:38.416Z,11.50
2019-03-01T04:40:09.579Z,11.40
2019-03-01T04:42:38.035Z,11.30
2019-03-01T04:45:09.357Z,11.10
2019-03-01T04:47:37.924Z,11.00
2019-03-01T04:50:08.906Z,10.80
2019-03-01T04:52:37.634Z,10.80
2019-03-01T04:55:09.378Z,11.00
2019-03-01T04:57:37.830Z,10.90
2019-03-01T05:00:09.367Z,11.00
2019-03-01T05:02:37.875Z,10.90
2019-03-01T05:05:06.675Z,10.80
2019-03-01T05:07:35.119Z,10.80
2019-03-01T05:10:05.015Z,10.70
2019-03-01T05:12:33.454Z,10.60
2019-03-01T05:15:02.094Z,10.40
2019-03-01T05:17:30.634Z,10.40
2019-03-01T05:19:59.156Z,10.50
2019-03-01T05:22:27.620Z,10.50
2019-03-01T05:24:56.063Z,10.90
2019-03-01T05:27:24.523Z,11.00
2019-03-01T05:29:52.965Z,11.10
2019-03-01T05:32:21.414Z,11.10
2019-03-01T05:34:49.862Z,11.10
2019-03-01T05:37:18.310Z,11.00
2019-03-01T05:39:46.767Z,11.00
2019-03-01T05:42:15.275Z,11.10
2019-03-01T05:44:43.739Z,11.30
2019-03-01T05:47:12.259Z,11.30
2019-03-01T05:49:40.703Z,11.30
2019-03-01T05:52:09.162Z,11.30
2019-03-01T05:54:37.618Z,11.40
2019-03-01T05:57:06.062Z,11.30
2019-03-01T05:59:34.520Z,11.10
2019-03-01T06:02:21.012Z,11.10
2019-03-01T06:04:52.681Z,11.10
2019-03-01T06:07:29.859Z,11.10
2019-03-01T06:10:19.342Z,11.10
2019-03-01T06:12:53.445Z,11.00
2019-03-01T06:15:39.417Z,10.90
2019-03-01T06:18:26.072Z,10.80
2019-03-01T06:21:18.781Z,10.70
2019-03-01T06:24:05.301Z,10.50
2019-03-01T06:26:51.736Z,10.40
2019-03-01T06:29:38.542Z,10.10
2019-03-01T06:32:45.107Z,9.90
2019-03-01T06:35:16.626Z,9.80
2019-03-01T06:38:08.097Z,9.50
2019-03-01T06:40:52.934Z,9.40
2019-03-01T06:43:30.578Z,9.20
2019-03-01T06:46:02.107Z,9.00
2019-03-01T06:48:32.190Z,9.00
2019-03-01T06:51:02.291Z,9.10
2019-03-01T06:53:30.778Z,9.10
2019-03-01T06:55:59.362Z,9.20
2019-03-01T06:58:27.814Z,9.30
2019-03-01T07:00:57.894Z,9.50
2019-03-01T07:03:26.559Z,9.70
2019-03-01T07:06:03.108Z,9.70
2019-03-01T07:08:25.212Z,9.90
2019-03-01T07:10:53.686Z,10.00
2019-03-01T07:13:22.130Z,10.30
2019-03-01T07:15:50.578Z,10.50
2019-03-01T07:18:19.034Z,10.70
2019-03-01T07:20:47.474Z,11.10
2019-03-01T07:23:15.934Z,11.30
2019-03-01T07:25:44.379Z,11.50
2019-03-01T07:28:12.843Z,11.60
2019-03-01T07:30:41.283Z,11.70
2019-03-01T07:33:09.751Z,11.80
2019-03-01T07:35:38.191Z,11.90
2019-03-01T07:38:06.650Z,11.90
2019-03-01T07:40:35.091Z,11.90
2019-03-01T07:43:03.692Z,12.00
2019-03-01T07:45:32.151Z,12.00
2019-03-01T07:48:00.606Z,12.00
2019-03-01T07:50:29.130Z,12.00
2019-03-01T07:53:00.187Z,12.00
2019-03-01T07:55:28.392Z,12.00
2019-03-01T07:57:57.956Z,12.00
2019-03-01T08:00:26.414Z,11.90
2019-03-01T08:02:54.878Z,11.90
2019-03-01T08:05:23.336Z,11.90
2019-03-01T08:07:56.029Z,11.90
2019-03-01T08:10:23.023Z,12.00
2019-03-01T08:12:51.899Z,12.00
2019-03-01T08:15:20.417Z,12.20
2019-03-01T08:17:48.884Z,12.40
2019-03-01T08:20:18.752Z,12.70
2019-03-01T08:22:48.919Z,13.00
2019-03-01T08:25:22.472Z,13.20
2019-03-01T08:27:50.169Z,13.50
2019-03-01T08:30:18.665Z,13.50
2019-03-01T08:32:47.152Z,13.70
2019-03-01T08:35:17.290Z,13.90
2019-03-01T08:37:45.823Z,13.90
2019-03-01T08:40:16.306Z,13.70
2019-03-01T08:42:45.153Z,13.60
2019-03-01T08:45:15.786Z,13.70
2019-03-01T08:47:44.305Z,13.80
2019-03-01T08:50:16.566Z,13.80
2019-03-01T08:52:45.874Z,13.80
2019-03-01T08:55:22.757Z,13.80
2019-03-01T08:57:51.417Z,13.90
2019-03-01T09:00:31.862Z,14.00
2019-03-01T09:03:22.316Z,14.00
2019-03-01T09:05:48.768Z,14.10
2019-03-01T09:08:19.287Z,14.10
2019-03-01T09:10:47.425Z,14.10
2019-03-01T09:13:15.921Z,14.30
2019-03-01T09:15:46.161Z,14.50
2019-03-01T09:18:15.354Z,14.60
2019-03-01T09:20:44.335Z,14.70
2019-03-01T09:23:22.934Z,14.60
2019-03-01T09:25:44.765Z,14.70
2019-03-01T09:28:13.199Z,14.80
2019-03-01T09:30:43.570Z,14.80
2019-03-01T09:33:11.967Z,14.80
2019-03-01T09:35:44.495Z,14.70
2019-03-01T09:38:13.053Z,14.70
2019-03-01T09:40:41.517Z,14.90
2019-03-01T09:43:09.958Z,15.00
2019-03-01T09:45:38.415Z,15.10
2019-03-01T09:48:08.667Z,15.20
2019-03-01T09:50:38.300Z,15.30
2019-03-01T09:53:06.837Z,15.30
2019-03-01T09:55:37.707Z,15.10
2019-03-01T09:58:05.692Z,15.10
2019-03-01T10:00:40.735Z,15.10
2019-03-01T10:03:09.189Z,15.20
2019-03-01T10:05:37.639Z,15.40
2019-03-01T10:08:07.750Z,15.50
2019-03-01T10:10:36.406Z,15.50
2019-03-01T10:13:05.002Z,15.70
2019-03-01T10:15:33.595Z,15.90
2019-03-01T10:18:02.044Z,16.10
2019-03-01T10:20:30.503Z,16.10
2019-03-01T10:22:58.937Z,16.30
2019-03-01T10:25:27.535Z,16.20
2019-03-01T10:27:55.978Z,16.30
2019-03-01T10:30:25.615Z,16.10
2019-03-01T10:32:54.210Z,16.00
2019-03-01T10:35:22.718Z,15.80
2019-03-01T10:37:51.321Z,15.70
2019-03-01T10:40:23.578Z,15.80
2019-03-01T10:42:52.030Z,15.90
2019-03-01T10:45:30.642Z,15.90
2019-03-01T10:47:59.210Z,16.00
2019-03-01T10:50:27.771Z,16.10
2019-03-01T10:52:56.233Z,16.10
2019-03-01T10:55:24.757Z,16.10
2019-03-01T10:57:53.199Z,16.00
2019-03-01T11:00:26.580Z,15.90
2019-03-01T11:02:56.298Z,15.80
2019-03-01T11:05:25.670Z,16.00
2019-03-01T11:07:54.967Z,15.90
2019-03-01T11:10:31.827Z,15.70
2019-03-01T11:13:00.338Z,15.70
2019-03-01T11:15:28.845Z,15.70
2019-03-01T11:17:57.301Z,15.60
2019-03-01T11:20:25.886Z,15.70
2019-03-01T11:22:54.415Z,15.70
2019-03-01T11:25:27.018Z,15.70
2019-03-01T11:27:55.881Z,15.50
2019-03-01T11:30:29.987Z,15.60
2019-03-01T11:32:58.431Z,15.50
2019-03-01T11:35:27.027Z,15.50
2019-03-01T11:37:55.481Z,15.60
2019-03-01T11:40:27.027Z,15.70
2019-03-01T11:42:55.671Z,15.70
2019-03-01T11:45:24.215Z,15.70
2019-03-01T11:47:52.657Z,15.60
2019-03-01T11:50:22.854Z,15.50
2019-03-01T11:52:51.294Z,15.40
2019-03-01T11:55:19.815Z,15.30
2019-03-01T11:57:48.344Z,15.30
2019-03-01T12:00:22.766Z,15.30
2019-03-01T12:02:51.379Z,15.30
2019-03-01T12:05:20.340Z,15.50
2019-03-01T12:07:49.113Z,15.50
2019-03-01T12:10:31.703Z,15.50
2019-03-01T12:13:00.215Z,15.50
2019-03-01T12:15:28.734Z,15.50
2019-03-01T12:17:57.190Z,15.50
2019-03-01T12:20:32.921Z,15.60
2019-03-01T12:23:01.420Z,15.60
2019-03-01T12:25:30.021Z,15.60
2019-03-01T12:27:58.533Z,15.40
2019-03-01T12:30:27.555Z,15.40
2019-03-01T12:32:56.155Z,15.30
2019-03-01T12:35:24.659Z,15.30
2019-03-01T12:37:53.123Z,15.20
2019-03-01T12:40:29.479Z,15.20
2019-03-01T12:42:58.148Z,15.00
2019-03-01T12:45:26.636Z,14.80
2019-03-01T12:47:55.120Z,14.70
2019-03-01T12:50:23.647Z,14.60
2019-03-01T12:52:52.186Z,14.60
2019-03-01T12:55:26.037Z,14.60
2019-03-01T12:57:54.617Z,14.60
2019-03-01T13:00:25.782Z,14.60
2019-03-01T13:02:54.227Z,14.60
2019-03-01T13:05:25.567Z,14.80
2019-03-01T13:07:54.414Z,14.80
2019-03-01T13:10:25.302Z,14.90
2019-03-01T13:12:54.679Z,14.90
2019-03-01T13:15:23.391Z,14.70
2019-03-01T13:17:51.855Z,14.70
2019-03-01T13:20:20.570Z,14.80
2019-03-01T13:22:49.119Z,14.80
2019-03-01T13:25:17.647Z,14.80
2019-03-01T13:27:48.935Z,14.90
2019-03-01T13:30:28.114Z,15.00
2019-03-01T13:32:58.824Z,15.00
2019-03-01T13:35:27.602Z,15.00
2019-03-01T13:37:56.822Z,15.00
2019-03-01T13:40:25.604Z,15.00
2019-03-01T13:42:54.130Z,14.80
2019-03-01T13:45:23.893Z,14.70
2019-03-01T13:47:52.490Z,14.60
2019-03-01T13:50:21.970Z,14.50
2019-03-01T13:52:50.433Z,14.50
2019-03-01T13:55:22.266Z,14.50
2019-03-01T13:57:51.161Z,14.40
2019-03-01T14:00:21.911Z,14.40
2019-03-01T14:02:50.517Z,14.30
2019-03-01T14:05:19.259Z,14.30
2019-03-01T14:07:48.577Z,14.30
2019-03-01T14:10:22.406Z,14.40
2019-03-01T14:12:50.939Z,14.40
2019-03-01T14:15:19.544Z,14.30
2019-03-01T14:17:49.038Z,14.20
2019-03-01T14:20:21.046Z,14.20
2019-03-01T14:22:50.007Z,14.10
2019-03-01T14:25:18.667Z,14.10
2019-03-01T14:27:47.614Z,14.10
2019-03-01T14:30:30.219Z,14.00
2019-03-01T14:32:57.557Z,14.00
2019-03-01T14:35:26.823Z,13.90
2019-03-01T14:37:55.645Z,13.80
2019-03-01T14:40:24.390Z,13.80
2019-03-01T14:42:52.961Z,13.80
2019-03-01T14:45:32.396Z,13.80
2019-03-01T14:48:00.856Z,13.70
2019-03-01T14:50:33.845Z,13.60
2019-03-01T14:53:00.839Z,13.60
2019-03-01T14:55:38.502Z,13.70
2019-03-01T14:58:10.034Z,13.60
2019-03-01T15:00:41.578Z,13.50
2019-03-01T15:03:16.440Z,13.50
2019-03-01T15:05:43.283Z,13.50
2019-03-01T15:08:11.801Z,13.50
2019-03-01T15:10:40.245Z,13.40
2019-03-01T15:13:08.777Z,13.50
2019-03-01T15:15:37.307Z,13.60
2019-03-01T15:18:05.839Z,13.60
2019-03-01T15:20:34.296Z,13.60
2019-03-01T15:23:02.745Z,13.60
2019-03-01T15:25:31.217Z,13.40
2019-03-01T15:27:59.674Z,13.30
2019-03-01T15:30:28.119Z,13.20
2019-03-01T15:32:56.579Z,13.20
2019-03-01T15:35:25.019Z,13.20
2019-03-01T15:37:53.470Z,13.20
2019-03-01T15:40:21.939Z,13.30
2019-03-01T15:42:51.467Z,13.40
2019-03-01T15:45:20.582Z,13.40
2019-03-01T15:47:50.452Z,13.40
2019-03-01T15:50:19.191Z,13.20
2019-03-01T15:52:49.654Z,13.20
2019-03-01T15:55:18.237Z,13.10
2019-03-01T15:57:46.742Z,13.00
2019-03-01T16:00:17.191Z,12.90
2019-03-01T16:02:45.648Z,12.80
2019-03-01T16:05:14.928Z,12.80
2019-03-01T16:07:43.527Z,12.60
2019-03-01T16:10:14.485Z,12.50
2019-03-01T16:12:42.941Z,12.40
2019-03-01T16:15:18.129Z,12.30
2019-03-01T16:17:46.665Z,12.20
2019-03-01T16:20:17.350Z,12.20
2019-03-01T16:22:45.959Z,12.10
2019-03-01T16:25:20.534Z,12.00
2019-03-01T16:27:50.663Z,11.90
2019-03-01T16:30:19.942Z,11.70
2019-03-01T16:32:50.453Z,11.70
2019-03-01T16:35:21.525Z,11.60
2019-03-01T16:37:57.709Z,11.40
2019-03-01T16:40:24.555Z,11.30
2019-03-01T16:42:54.360Z,11.20
2019-03-01T16:45:24.104Z,11.10
2019-03-01T16:47:52.538Z,11.00
2019-03-01T16:50:21.266Z,11.00
2019-03-01T16:52:49.789Z,10.80
2019-03-01T16:55:20.856Z,10.80
2019-03-01T16:57:52.321Z,10.70
2019-03-01T17:00:21.826Z,10.80
2019-03-01T17:02:53.032Z,10.80
2019-03-01T17:05:21.491Z,10.70
2019-03-01T17:07:50.008Z,10.60
2019-03-01T17:10:19.305Z,10.60
2019-03-01T17:12:48.818Z,10.50
2019-03-01T17:15:22.110Z,10.40
2019-03-01T17:17:50.793Z,10.30
2019-03-01T17:20:19.314Z,10.30
2019-03-01T17:22:47.757Z,10.20
2019-03-01T17:25:16.962Z,10.10
2019-03-01T17:27:46.364Z,10.10
2019-03-01T17:30:19.475Z,10.00
2019-03-01T17:32:48.074Z,10.20
2019-03-01T17:35:16.655Z,10.20
2019-03-01T17:37:45.122Z,10.10
2019-03-01T17:40:17.824Z,10.00
2019-03-01T17:42:46.405Z,9.90
2019-03-01T17:45:23.571Z,9.80
2019-03-01T17:47:52.363Z,9.70
2019-03-01T17:50:20.874Z,9.60
2019-03-01T17:52:49.494Z,9.50
2019-03-01T17:55:24.344Z,9.30
2019-03-01T17:57:53.249Z,9.30
2019-03-01T18:00:43.010Z,9.40
2019-03-01T18:03:11.461Z,9.20
2019-03-01T18:05:40.542Z,9.20
2019-03-01T18:08:10.038Z,9.20
2019-03-01T18:10:38.625Z,9.30
2019-03-01T18:13:07.146Z,9.20
2019-03-01T18:15:35.659Z,9.20
2019-03-01T18:18:04.166Z,9.20
2019-03-01T18:20:33.884Z,9.10
2019-03-01T18:23:03.194Z,9.00
2019-03-01T18:25:31.790Z,8.80
2019-03-01T18:28:00.218Z,8.60
2019-03-01T18:30:33.642Z,8.40
2019-03-01T18:33:02.088Z,8.00
2019-03-01T18:35:30.614Z,7.70
2019-03-01T18:37:59.126Z,7.60
2019-03-01T18:40:27.595Z,7.60
2019-03-01T18:42:56.774Z,7.40
2019-03-01T18:45:27.692Z,7.30
2019-03-01T18:47:56.159Z,7.20
2019-03-01T18:50:31.185Z,7.20
2019-03-01T18:53:03.450Z,7.10
2019-03-01T18:55:31.537Z,7.00
2019-03-01T18:58:00.393Z,6.80
2019-03-01T19:00:37.739Z,6.60
2019-03-01T19:03:07.035Z,6.60
2019-03-01T19:05:36.562Z,6.60
2019-03-01T19:08:06.266Z,6.60
2019-03-01T19:10:35.678Z,6.70
2019-03-01T19:13:04.453Z,6.60
2019-03-01T19:15:33.038Z,6.50
2019-03-01T19:18:01.473Z,6.40
2019-03-01T19:20:42.443Z,6.40
2019-03-01T19:23:11.039Z,6.50
2019-03-01T19:25:39.496Z,6.40
2019-03-01T19:28:08.020Z,6.10
2019-03-01T19:30:36.550Z,5.90
2019-03-01T19:33:05.150Z,5.90
2019-03-01T19:35:33.657Z,5.80
2019-03-01T19:38:02.118Z,5.70
2019-03-01T19:40:30.715Z,5.80
2019-03-01T19:42:59.177Z,5.80
2019-03-01T19:45:27.697Z,5.80
2019-03-01T19:48:01.295Z,5.80
2019-03-01T19:50:28.617Z,5.80
2019-03-01T19:52:57.059Z,5.90
2019-03-01T19:55:25.581Z,5.90
2019-03-01T19:57:54.652Z,6.00
2019-03-01T20:00:28.476Z,5.80
2019-03-01T20:02:57.279Z,5.80
2019-03-01T20:05:35.832Z,5.60
2019-03-01T20:08:04.401Z,5.50
2019-03-01T20:10:33.175Z,5.60
2019-03-01T20:13:02.029Z,5.60
2019-03-01T20:15:31.392Z,5.20
2019-03-01T20:18:00.017Z,5.10
2019-03-01T20:20:29.823Z,5.20
2019-03-01T20:22:59.930Z,5.20
2019-03-01T20:25:28.446Z,5.20
2019-03-01T20:27:56.898Z,5.40
2019-03-01T20:30:32.988Z,5.20
2019-03-01T20:33:01.511Z,4.90
2019-03-01T20:35:29.961Z,4.80
2019-03-01T20:38:00.386Z,4.80
2019-03-01T20:40:28.706Z,4.80
2019-03-01T20:43:00.455Z,5.00
2019-03-01T20:45:40.322Z,5.00
2019-03-01T20:48:08.845Z,5.00
2019-03-01T20:50:37.447Z,5.00
2019-03-01T20:53:05.900Z,5.00
2019-03-01T20:55:37.113Z,4.90
2019-03-01T20:58:04.606Z,4.70
2019-03-01T21:00:33.240Z,4.70
2019-03-01T21:03:01.675Z,4.80
2019-03-01T21:05:30.600Z,5.20
2019-03-01T21:07:59.317Z,6.20
2019-03-01T21:10:32.282Z,6.90
2019-03-01T21:13:00.798Z,7.20
2019-03-01T21:15:29.299Z,7.50
2019-03-01T21:17:58.726Z,7.60
2019-03-01T21:20:28.214Z,7.80
2019-03-01T21:22:56.665Z,8.00
2019-03-01T21:25:25.838Z,7.90
2019-03-01T21:27:57.475Z,7.40
2019-03-01T21:30:29.291Z,6.90
2019-03-01T21:32:57.748Z,6.40
2019-03-01T21:35:26.273Z,6.00
2019-03-01T21:37:54.797Z,5.70
2019-03-01T21:40:23.360Z,5.50
2019-03-01T21:42:52.901Z,5.20
2019-03-01T21:45:23.741Z,5.00
2019-03-01T21:47:52.261Z,4.90
2019-03-01T21:50:20.860Z,4.70
2019-03-01T21:52:49.393Z,4.60
2019-03-01T21:55:20.118Z,4.50
2019-03-01T21:57:48.573Z,4.50
2019-03-01T22:00:25.412Z,4.50
2019-03-01T22:02:54.141Z,4.60
2019-03-01T22:05:22.822Z,4.50
2019-03-01T22:07:51.283Z,4.50
2019-03-01T22:10:19.890Z,4.50
2019-03-01T22:12:48.335Z,4.70
2019-03-01T22:15:29.470Z,4.60
2019-03-01T22:17:57.914Z,4.60
2019-03-01T22:20:26.715Z,4.60
2019-03-01T22:22:55.160Z,4.50
2019-03-01T22:25:23.764Z,4.50
2019-03-01T22:27:52.298Z,4.50
2019-03-01T22:30:31.793Z,4.40
2019-03-01T22:33:00.246Z,4.40
2019-03-01T22:35:28.756Z,4.50
2019-03-01T22:38:00.994Z,4.40
2019-03-01T22:40:28.070Z,4.50
2019-03-01T22:42:57.562Z,4.50
2019-03-01T22:45:26.015Z,4.30
2019-03-01T22:47:54.454Z,4.20
2019-03-01T22:50:22.920Z,4.10
2019-03-01T22:52:51.374Z,4.20
2019-03-01T22:55:20.557Z,4.30
2019-03-01T22:57:49.082Z,4.40
2019-03-01T23:00:47.363Z,4.40
2019-03-01T23:03:18.886Z,4.40
2019-03-01T23:05:46.937Z,4.40
2019-03-01T23:08:15.559Z,4.60
2019-03-01T23:10:44.193Z,4.80
2019-03-01T23:13:12.709Z,4.90
2019-03-01T23:15:43.402Z,4.80
2019-03-01T23:18:11.463Z,4.80
2019-03-01T23:20:39.922Z,4.70
2019-03-01T23:23:08.387Z,4.60
2019-03-01T23:25:36.896Z,4.70
2019-03-01T23:28:08.173Z,4.50
2019-03-01T23:30:35.654Z,4.40
2019-03-01T23:33:04.169Z,4.30
2019-03-01T23:35:32.699Z,4.50
2019-03-01T23:38:01.154Z,4.50
2019-03-01T23:40:32.712Z,4.60
2019-03-01T23:42:59.782Z,4.60
2019-03-01T23:45:28.295Z,4.60
2019-03-01T23:47:56.744Z,4.60
2019-03-01T23:50:25.187Z,4.60
2019-03-01T23:52:54.853Z,4.50
2019-03-01T23:55:23.799Z,4.50
2019-03-01T23:57:52.318Z,4.50
